createdAt,value
2023-04-10T00:00:24.227Z,9.21
2023-04-10T00:03:24.538Z,9.19
2023-04-10T00:06:26.240Z,9.20
2023-04-10T00:09:26.251Z,9.18
2023-04-10T00:12:29.314Z,9.18
2023-04-10T00:15:30.255Z,9.18
2023-04-10T00:18:30.601Z,9.19
2023-04-10T00:21:30.326Z,9.20
2023-04-10T00:24:31.241Z,9.19
2023-04-10T00:27:33.333Z,9.21
2023-04-10T00:30:34.269Z,9.20
2023-04-10T00:33:35.307Z,9.16
2023-04-10T00:36:38.320Z,9.13
2023-04-10T00:39:38.308Z,9.11
2023-04-10T00:42:39.305Z,9.13
2023-04-10T00:45:39.317Z,9.13
2023-04-10T00:48:39.313Z,9.12
2023-04-10T00:51:40.324Z,9.13
2023-04-10T00:54:49.562Z,9.15
2023-04-10T00:57:50.351Z,9.13
2023-04-10T01:00:54.476Z,9.13
2023-04-10T01:03:55.585Z,9.11
2023-04-10T01:07:32.369Z,9.12
2023-04-10T01:10:35.425Z,9.13
2023-04-10T01:13:38.387Z,9.14
2023-04-10T01:16:44.409Z,9.13
2023-04-10T01:19:49.382Z,9.12
2023-04-10T01:23:07.376Z,9.08
2023-04-10T01:26:11.475Z,9.07
2023-04-10T01:29:19.369Z,9.04
2023-04-10T01:32:26.928Z,9.02
2023-04-10T01:35:27.465Z,9.02
2023-04-10T01:38:29.424Z,8.99
2023-04-10T01:41:29.424Z,8.97
2023-04-10T01:44:29.424Z,8.97
2023-04-10T01:47:29.575Z,8.97
2023-04-10T01:50:31.444Z,8.96
2023-04-10T01:53:31.444Z,8.97
2023-04-10T01:56:31.409Z,9.00
2023-04-10T01:59:31.464Z,9.02
2023-04-10T02:02:31.616Z,9.01
2023-04-10T02:05:32.473Z,9.01
2023-04-10T02:08:38.540Z,8.99
2023-04-10T02:11:42.604Z,9.00
2023-04-10T02:14:44.488Z,9.00
2023-04-10T02:17:44.580Z,9.02
2023-04-10T02:20:44.469Z,8.98
2023-04-10T02:23:45.464Z,8.95
2023-04-10T02:26:56.517Z,8.94
2023-04-10T02:30:02.482Z,8.95
2023-04-10T02:33:04.525Z,8.94
2023-04-10T02:36:04.510Z,8.95
2023-04-10T02:39:09.519Z,8.98
2023-04-10T02:42:15.541Z,9.01
2023-04-10T02:45:15.551Z,9.04
2023-04-10T02:48:18.549Z,9.02
2023-04-10T02:51:21.568Z,9.03
2023-04-10T02:54:22.563Z,9.02
2023-04-10T02:57:22.520Z,9.01
2023-04-10T03:00:25.541Z,9.01
2023-04-10T03:03:37.651Z,9.03
2023-04-10T03:06:38.570Z,9.06
2023-04-10T03:09:38.597Z,9.07
2023-04-10T03:12:39.584Z,9.07
2023-04-10T03:15:40.619Z,9.06
2023-04-10T03:18:40.557Z,9.07
2023-04-10T03:21:42.584Z,9.07
2023-04-10T03:24:42.574Z,9.09
2023-04-10T03:27:45.590Z,9.10
2023-04-10T03:30:45.618Z,9.09
2023-04-10T03:33:46.666Z,9.10
2023-04-10T03:36:46.681Z,9.09
2023-04-10T03:39:46.590Z,9.08
2023-04-10T03:42:46.670Z,9.06
2023-04-10T03:45:46.621Z,9.06
2023-04-10T03:48:48.616Z,9.04
2023-04-10T03:51:48.706Z,8.99
2023-04-10T03:54:49.703Z,8.94
2023-04-10T03:57:52.674Z,8.94
2023-04-10T04:00:53.643Z,8.93
2023-04-10T04:04:00.405Z,8.93
2023-04-10T04:07:28.673Z,8.92
2023-04-10T04:10:47.666Z,8.95
2023-04-10T04:14:10.666Z,8.98
2023-04-10T04:17:30.700Z,8.98
2023-04-10T04:20:31.666Z,8.99
2023-04-10T04:23:57.678Z,8.98
2023-04-10T04:27:21.703Z,8.99
2023-04-10T04:30:35.835Z,9.02
2023-04-10T04:33:43.745Z,9.02
2023-04-10T04:37:13.753Z,9.02
2023-04-10T04:40:49.726Z,9.01
2023-04-10T04:44:14.711Z,9.02
2023-04-10T04:47:34.742Z,9.03
2023-04-10T04:50:48.788Z,9.05
2023-04-10T04:54:08.772Z,9.06
2023-04-10T04:57:24.776Z,9.08
2023-04-10T05:00:53.802Z,9.06
2023-04-10T05:04:13.958Z,9.08
2023-04-10T05:07:42.804Z,9.08
2023-04-10T05:10:53.759Z,9.12
2023-04-10T05:14:04.817Z,9.13
2023-04-10T05:17:13.896Z,9.16
2023-04-10T05:20:42.817Z,9.22
2023-04-10T05:23:53.766Z,9.28
2023-04-10T05:27:22.787Z,9.35
2023-04-10T05:30:43.833Z,9.40
2023-04-10T05:34:08.834Z,9.47
2023-04-10T05:37:31.814Z,9.55
2023-04-10T05:40:57.824Z,9.65
2023-04-10T05:44:05.829Z,9.71
2023-04-10T05:47:23.873Z,9.72
2023-04-10T05:50:43.800Z,9.73
2023-04-10T05:53:59.934Z,9.75
2023-04-10T05:57:27.872Z,9.74
2023-04-10T06:00:32.877Z,9.75
2023-04-10T06:03:54.050Z,9.79
2023-04-10T06:06:56.861Z,9.81
2023-04-10T06:10:02.849Z,9.84
2023-04-10T06:13:05.972Z,9.86
2023-04-10T06:16:06.872Z,9.86
2023-04-10T06:19:07.905Z,9.87
2023-04-10T06:22:07.938Z,9.87
2023-04-10T06:25:08.931Z,9.85
2023-04-10T06:28:08.901Z,9.80
2023-04-10T06:31:12.948Z,9.79
2023-04-10T06:34:12.931Z,9.79
2023-04-10T06:37:26.918Z,9.80
2023-04-10T06:40:27.991Z,9.85
2023-04-10T06:43:27.919Z,9.87
2023-04-10T06:46:28.033Z,9.87
2023-04-10T06:49:28.122Z,9.85
2023-04-10T06:52:27.975Z,9.81
2023-04-10T06:55:27.991Z,9.76
2023-04-10T06:58:48.976Z,9.74
2023-04-10T07:01:50.071Z,9.69
2023-04-10T07:04:50.979Z,9.69
2023-04-10T07:07:59.234Z,9.69
2023-04-10T07:11:02.356Z,9.75
2023-04-10T07:14:04.168Z,9.80
2023-04-10T07:17:04.042Z,9.82
2023-04-10T07:20:05.002Z,9.81
2023-04-10T07:23:10.977Z,9.78
2023-04-10T07:26:11.050Z,9.76
2023-04-10T07:29:11.016Z,9.77
2023-04-10T07:32:13.217Z,9.77
2023-04-10T07:35:13.031Z,9.77
2023-04-10T07:38:14.056Z,9.77
2023-04-10T07:41:14.041Z,9.78
2023-04-10T07:44:22.622Z,9.72
2023-04-10T07:47:23.194Z,9.63
2023-04-10T07:50:25.163Z,9.56
2023-04-10T07:53:25.083Z,9.51
2023-04-10T07:56:31.033Z,9.52
2023-04-10T07:59:34.802Z,9.50
2023-04-10T08:02:36.418Z,9.47
2023-04-10T08:05:44.074Z,9.51
2023-04-10T08:08:44.241Z,9.56
2023-04-10T08:11:44.113Z,9.61
2023-04-10T08:14:44.071Z,9.66
2023-04-10T08:17:45.097Z,9.71
2023-04-10T08:20:45.126Z,9.76
2023-04-10T08:23:45.165Z,9.81
2023-04-10T08:26:45.133Z,9.91
2023-04-10T08:29:46.363Z,10.02
2023-04-10T08:32:47.160Z,10.11
2023-04-10T08:35:51.205Z,10.21
2023-04-10T08:38:51.808Z,10.34
2023-04-10T08:41:53.163Z,10.50
2023-04-10T08:44:55.203Z,10.69
2023-04-10T08:47:58.148Z,10.87
2023-04-10T08:50:59.169Z,11.15
2023-04-10T08:53:59.269Z,11.56
2023-04-10T08:57:00.180Z,11.87
2023-04-10T09:00:07.043Z,12.04
2023-04-10T09:03:24.356Z,12.08
2023-04-10T09:06:25.198Z,12.07
2023-04-10T09:09:30.215Z,12.07
2023-04-10T09:12:31.208Z,12.00
2023-04-10T09:15:31.209Z,11.90
2023-04-10T09:18:35.244Z,11.81
2023-04-10T09:21:35.259Z,11.76
2023-04-10T09:24:39.217Z,11.78
2023-04-10T09:27:41.202Z,11.82
2023-04-10T09:30:47.203Z,11.81
2023-04-10T09:34:02.509Z,11.89
2023-04-10T09:37:10.221Z,12.00
2023-04-10T09:40:16.214Z,12.15
2023-04-10T09:43:29.231Z,12.52
2023-04-10T09:46:41.353Z,12.87
2023-04-10T09:49:42.337Z,13.03
2023-04-10T09:52:46.327Z,13.19
2023-04-10T09:55:47.290Z,13.30
2023-04-10T09:58:47.288Z,13.30
2023-04-10T10:01:47.354Z,13.31
2023-04-10T10:04:48.343Z,13.41
2023-04-10T10:07:49.395Z,13.50
2023-04-10T10:11:09.311Z,13.47
2023-04-10T10:14:09.301Z,13.47
2023-04-10T10:17:09.378Z,13.38
2023-04-10T10:20:12.466Z,13.37
2023-04-10T10:23:17.387Z,13.54
2023-04-10T10:26:18.328Z,13.73
2023-04-10T10:29:19.388Z,13.85
2023-04-10T10:32:20.556Z,14.01
2023-04-10T10:35:23.739Z,14.17
2023-04-10T10:38:32.406Z,14.23
2023-04-10T10:41:36.353Z,14.06
2023-04-10T10:44:41.372Z,14.12
2023-04-10T10:47:42.077Z,14.39
2023-04-10T10:51:18.366Z,14.56
2023-04-10T10:54:18.438Z,14.76
2023-04-10T10:57:44.414Z,14.75
2023-04-10T11:01:02.426Z,14.64
2023-04-10T11:04:05.514Z,14.55
2023-04-10T11:07:05.515Z,14.58
2023-04-10T11:10:12.366Z,14.74
2023-04-10T11:13:28.505Z,14.87
2023-04-10T11:16:31.486Z,14.84
2023-04-10T11:19:31.426Z,14.72
2023-04-10T11:22:33.467Z,14.50
2023-04-10T11:25:45.501Z,14.40
2023-04-10T11:28:46.414Z,14.38
2023-04-10T11:31:47.532Z,14.37
2023-04-10T11:34:47.472Z,14.26
2023-04-10T11:37:49.328Z,14.09
2023-04-10T11:41:10.507Z,13.95
2023-04-10T11:44:10.489Z,13.82
2023-04-10T11:47:12.570Z,13.69
2023-04-10T11:50:13.573Z,13.59
2023-04-10T11:53:13.519Z,13.53
2023-04-10T11:56:13.547Z,13.59
2023-04-10T11:59:16.480Z,13.61
2023-04-10T12:02:23.655Z,13.66
2023-04-10T12:05:23.631Z,13.68
2023-04-10T12:08:23.513Z,13.74
2023-04-10T12:11:27.060Z,13.95
2023-04-10T12:14:29.573Z,14.21
2023-04-10T12:17:30.622Z,14.69
2023-04-10T12:20:34.610Z,15.49
2023-04-10T12:23:39.617Z,16.07
2023-04-10T12:26:41.536Z,16.38
2023-04-10T12:29:42.064Z,16.46
2023-04-10T12:32:42.538Z,16.27
2023-04-10T12:35:51.645Z,15.91
2023-04-10T12:38:53.855Z,15.67
2023-04-10T12:41:53.592Z,15.55
2023-04-10T12:45:04.558Z,15.44
2023-04-10T12:48:05.689Z,15.24
2023-04-10T12:51:06.626Z,14.87
2023-04-10T12:54:07.989Z,14.42
2023-04-10T12:57:12.143Z,13.90
2023-04-10T13:00:12.697Z,13.39
2023-04-10T13:03:12.877Z,13.09
2023-04-10T13:06:13.672Z,12.88
2023-04-10T13:09:13.618Z,12.63
2023-04-10T13:12:15.662Z,12.41
2023-04-10T13:15:16.590Z,12.18
2023-04-10T13:18:16.746Z,11.77
2023-04-10T13:21:16.735Z,11.47
2023-04-10T13:24:16.921Z,11.25
2023-04-10T13:27:23.626Z,11.09
2023-04-10T13:30:24.712Z,10.89
2023-04-10T13:33:25.664Z,10.73
2023-04-10T13:36:25.742Z,10.71
2023-04-10T13:39:25.705Z,10.76
2023-04-10T13:42:25.735Z,10.81
2023-04-10T13:45:26.761Z,10.89
2023-04-10T13:48:37.556Z,10.98
2023-04-10T13:51:40.671Z,11.21
2023-04-10T13:54:41.697Z,11.49
2023-04-10T13:57:42.780Z,11.79
2023-04-10T14:00:44.824Z,12.11
2023-04-10T14:03:46.812Z,12.38
2023-04-10T14:06:46.796Z,12.55
2023-04-10T14:09:47.716Z,12.64
2023-04-10T14:12:47.734Z,12.82
2023-04-10T14:15:49.748Z,13.02
2023-04-10T14:18:50.720Z,13.21
2023-04-10T14:21:55.801Z,13.41
2023-04-10T14:25:09.519Z,13.56
2023-04-10T14:28:12.764Z,13.66
2023-04-10T14:31:12.774Z,13.72
2023-04-10T14:34:16.792Z,13.78
2023-04-10T14:37:16.901Z,13.80
2023-04-10T14:40:16.751Z,13.84
2023-04-10T14:43:16.889Z,13.90
2023-04-10T14:46:18.856Z,13.96
2023-04-10T14:49:18.790Z,13.99
2023-04-10T14:52:19.793Z,13.88
2023-04-10T14:55:19.818Z,13.76
2023-04-10T14:58:20.848Z,13.68
2023-04-10T15:01:23.862Z,13.69
2023-04-10T15:04:24.841Z,13.73
2023-04-10T15:07:25.840Z,13.78
2023-04-10T15:10:25.806Z,13.79
2023-04-10T15:13:26.882Z,13.78
2023-04-10T15:16:27.837Z,13.77
2023-04-10T15:19:31.862Z,13.76
2023-04-10T15:22:33.930Z,13.75
2023-04-10T15:25:33.892Z,13.69
2023-04-10T15:28:35.829Z,13.62
2023-04-10T15:31:35.872Z,13.55
2023-04-10T15:34:35.874Z,13.51
2023-04-10T15:37:35.870Z,13.44
2023-04-10T15:40:36.943Z,13.36
2023-04-10T15:43:37.925Z,13.30
2023-04-10T15:46:38.911Z,13.25
2023-04-10T15:49:39.048Z,13.19
2023-04-10T15:52:46.988Z,13.10
2023-04-10T15:55:46.893Z,13.05
2023-04-10T15:58:46.959Z,13.00
2023-04-10T16:01:46.990Z,12.97
2023-04-10T16:04:54.150Z,12.92
2023-04-10T16:07:54.971Z,12.85
2023-04-10T16:10:54.932Z,12.76
2023-04-10T16:13:56.187Z,12.70
2023-04-10T16:16:55.968Z,12.64
2023-04-10T16:20:04.961Z,12.57
2023-04-10T16:23:05.021Z,12.48
2023-04-10T16:26:07.951Z,12.39
2023-04-10T16:29:08.015Z,12.28
2023-04-10T16:32:07.992Z,12.14
2023-04-10T16:35:07.954Z,11.99
2023-04-10T16:38:08.050Z,11.85
2023-04-10T16:41:15.982Z,11.71
2023-04-10T16:44:16.025Z,11.58
2023-04-10T16:47:17.027Z,11.45
2023-04-10T16:50:16.992Z,11.33
2023-04-10T16:53:18.029Z,11.22
2023-04-10T16:56:18.078Z,11.12
2023-04-10T16:59:19.025Z,11.03
2023-04-10T17:02:19.117Z,10.97
2023-04-10T17:05:19.094Z,10.91
2023-04-10T17:08:19.054Z,10.84
2023-04-10T17:11:19.052Z,10.77
2023-04-10T17:14:19.036Z,10.72
2023-04-10T17:17:19.147Z,10.67
2023-04-10T17:20:19.105Z,10.61
2023-04-10T17:23:19.233Z,10.55
2023-04-10T17:26:19.074Z,10.51
2023-04-10T17:29:19.160Z,10.47
2023-04-10T17:32:19.228Z,10.42
2023-04-10T17:35:20.092Z,10.36
2023-04-10T17:38:21.241Z,10.28
2023-04-10T17:41:22.361Z,10.20
2023-04-10T17:44:23.136Z,10.12
2023-04-10T17:47:23.117Z,10.04
2023-04-10T17:50:24.240Z,9.96
2023-04-10T17:53:24.116Z,9.89
2023-04-10T17:56:34.088Z,9.84
2023-04-10T17:59:34.141Z,9.78
2023-04-10T18:02:34.217Z,9.72
2023-04-10T18:05:34.198Z,9.65
2023-04-10T18:08:35.107Z,9.58
2023-04-10T18:11:36.277Z,9.52
2023-04-10T18:14:37.187Z,9.46
2023-04-10T18:17:39.498Z,9.40
2023-04-10T18:20:40.183Z,9.36
2023-04-10T18:23:42.183Z,9.31
2023-04-10T18:26:42.167Z,9.25
2023-04-10T18:29:44.174Z,9.21
2023-04-10T18:32:44.247Z,9.18
2023-04-10T18:35:44.335Z,9.17
2023-04-10T18:38:49.653Z,9.15
2023-04-10T18:41:51.222Z,9.13
2023-04-10T18:44:51.204Z,9.09
2023-04-10T18:47:55.314Z,9.06
2023-04-10T18:50:55.221Z,9.04
2023-04-10T18:53:56.516Z,9.03
2023-04-10T18:56:58.278Z,9.01
2023-04-10T19:00:03.267Z,9.02
2023-04-10T19:03:04.509Z,9.00
2023-04-10T19:06:06.209Z,9.02
2023-04-10T19:09:08.958Z,9.03
2023-04-10T19:12:09.228Z,9.03
2023-04-10T19:15:13.256Z,9.05
2023-04-10T19:18:15.888Z,9.08
2023-04-10T19:21:17.305Z,9.13
2023-04-10T19:24:17.337Z,9.21
2023-04-10T19:27:17.313Z,9.27
2023-04-10T19:30:17.257Z,9.33
2023-04-10T19:33:17.402Z,9.36
2023-04-10T19:36:18.439Z,9.39
2023-04-10T19:39:18.415Z,9.39
2023-04-10T19:42:20.460Z,9.37
2023-04-10T19:45:20.283Z,9.36
2023-04-10T19:48:21.338Z,9.40
2023-04-10T19:51:30.822Z,9.44
2023-04-10T19:54:32.329Z,9.47
2023-04-10T19:57:32.374Z,9.46
2023-04-10T20:00:32.356Z,9.45
2023-04-10T20:03:34.524Z,9.47
2023-04-10T20:06:34.360Z,9.49
2023-04-10T20:09:34.371Z,9.48
2023-04-10T20:12:35.400Z,9.50
2023-04-10T20:15:41.664Z,9.53
2023-04-10T20:18:43.352Z,9.53
2023-04-10T20:21:43.365Z,9.54
2023-04-10T20:24:43.346Z,9.56
2023-04-10T20:27:43.395Z,9.55
2023-04-10T20:30:45.394Z,9.52
2023-04-10T20:33:45.473Z,9.49
2023-04-10T20:36:46.367Z,9.45
2023-04-10T20:39:46.419Z,9.43
2023-04-10T20:42:48.169Z,9.41
2023-04-10T20:45:50.017Z,9.39
2023-04-10T20:48:50.379Z,9.36
2023-04-10T20:51:51.675Z,9.29
2023-04-10T20:54:54.854Z,9.23
2023-04-10T20:58:03.546Z,9.20
2023-04-10T21:01:12.539Z,9.15
2023-04-10T21:04:12.443Z,9.10
2023-04-10T21:07:12.444Z,9.03
2023-04-10T21:10:13.486Z,8.96
2023-04-10T21:13:14.586Z,8.89
2023-04-10T21:16:14.518Z,8.83
2023-04-10T21:19:14.467Z,8.77
2023-04-10T21:22:16.566Z,8.72
2023-04-10T21:25:16.499Z,8.72
2023-04-10T21:28:17.596Z,8.71
2023-04-10T21:31:17.615Z,8.68
2023-04-10T21:34:17.517Z,8.63
2023-04-10T21:37:17.503Z,8.59
2023-04-10T21:40:17.501Z,8.54
2023-04-10T21:43:18.469Z,8.50
2023-04-10T21:46:21.598Z,8.46
2023-04-10T21:49:21.493Z,8.40
2023-04-10T21:52:22.553Z,8.36
2023-04-10T21:55:23.519Z,8.33
2023-04-10T21:58:23.575Z,8.31
2023-04-10T22:01:23.562Z,8.32
2023-04-10T22:04:23.612Z,8.30
2023-04-10T22:07:25.518Z,8.27
2023-04-10T22:10:25.610Z,8.23
2023-04-10T22:13:31.163Z,8.22
2023-04-10T22:16:31.611Z,8.21
2023-04-10T22:19:32.592Z,8.17
2023-04-10T22:22:33.634Z,8.13
2023-04-10T22:25:35.004Z,8.08
2023-04-10T22:28:36.631Z,8.05
2023-04-10T22:31:36.615Z,8.06
2023-04-10T22:34:36.593Z,8.04
2023-04-10T22:37:38.641Z,8.02
2023-04-10T22:40:39.603Z,8.00
2023-04-10T22:43:40.620Z,8.01
2023-04-10T22:46:42.732Z,7.95
2023-04-10T22:49:43.679Z,7.87
2023-04-10T22:52:46.633Z,7.80
2023-04-10T22:55:46.654Z,7.74
2023-04-10T22:58:55.020Z,7.69
2023-04-10T23:01:56.739Z,7.67
2023-04-10T23:04:56.620Z,7.65
2023-04-10T23:07:57.643Z,7.59
2023-04-10T23:10:57.684Z,7.55
2023-04-10T23:13:58.721Z,7.50
2023-04-10T23:16:59.678Z,7.49
2023-04-10T23:20:05.645Z,7.46
2023-04-10T23:23:07.693Z,7.43
2023-04-10T23:26:10.674Z,7.39
2023-04-10T23:29:10.683Z,7.36
2023-04-10T23:32:10.711Z,7.32
2023-04-10T23:35:11.717Z,7.27
2023-04-10T23:38:12.745Z,7.22
2023-04-10T23:41:19.709Z,7.17
2023-04-10T23:44:20.837Z,7.15
2023-04-10T23:47:20.827Z,7.11
2023-04-10T23:50:20.715Z,7.08
2023-04-10T23:53:20.925Z,7.10
2023-04-10T23:56:24.715Z,7.10
2023-04-10T23:59:24.784Z,7.07
